Terminal Aerodrome Forecast
Issued by NWS

Home | Current Version | Previous Version | Text Only | Print | Product List | Glossary On
Versions: 1 2 3 4 5 6 7 8 9 10 11 12 13 14 15 16 17 18 19 20 21 22 23 24 25 26 27 28 29 30 31 32 33 34 35 36 37 38
000
FTUS46 KSEW 162344
TAFOLM
TAF
KOLM 162344Z 1700/1724 02005KT P6SM BKN120 OVC200
     FM170500 09004KT 5SM -RA OVC060
     FM172100 15010G19KT P6SM VCSH OVC060=

USA.gov is the U.S. government's official web portal to all federal, state and local government web resources and services.